Date,TemperatureHighF,TemperatureAvgF,TemperatureLowF,DewpointHighF,DewpointAvgF,DewpointLowF,HumidityHigh,HumidityAvg,HumidityLow,PressureMaxIn,PressureMinIn,WindSpeedMaxMPH,WindSpeedAvgMPH,GustSpeedMaxMPH,PrecipitationSumIn
2013-2-1,26.2,12.0,5.4,6.3,-5.8,-12.0,44,44,42,0.00,0.00,23,5,26,0.08
2013-2-2,37.0,25.4,11.3,15.0,5.3,-6.5,44,42,40,0.00,0.00,17,4,17,0.08
2013-2-3,28.2,21.2,12.2,7.4,2.0,-5.5,44,43,41,0.00,0.00,15,4,15,0.08
2013-2-4,38.5,28.4,14.0,15.5,7.9,-3.9,44,42,39,0.00,0.00,14,3,14,0.08
2013-2-5,42.1,33.9,22.6,18.3,12.3,3.4,43,40,38,0.00,0.00,11,2,11,0.08
2013-2-6,38.3,33.5,26.6,15.5,11.8,6.2,42,40,39,0.00,0.00,9,2,11,0.08
2013-2-7,69.3,45.8,31.3,38.8,21.1,10.1,41,37,33,0.00,0.00,11,4,11,0.08
2013-2-8,49.5,36.0,26.1,26.0,13.9,6.0,42,40,37,0.00,0.00,24,4,24,0.20
2013-2-9,51.6,32.7,20.1,25.7,11.2,1.2,43,40,37,0.00,0.00,11,3,11,0.08
2013-2-10,55.2,45.1,34.5,28.8,20.9,12.5,40,38,36,0.00,0.00,26,7,26,0.08
2013-2-11,53.2,45.1,33.8,27.2,20.9,12.1,40,38,36,0.00,0.00,26,8,26,0.08
2013-2-12,57.2,37.2,24.3,29.5,14.7,4.5,42,39,35,0.00,0.00,11,2,11,0.08
2013-2-13,50.9,34.5,30.6,25.1,12.5,9.1,41,40,37,0.00,0.00,9,3,9,0.08
2013-2-14,60.1,41.4,29.3,32.2,18.0,8.5,41,39,35,0.00,0.00,17,5,17,0.08
2013-2-15,48.7,31.8,20.1,23.0,10.4,1.2,43,40,37,0.00,0.00,17,3,17,0.08
2013-2-16,39.7,24.3,17.6,16.0,4.5,-0.9,44,42,39,0.00,0.00,16,4,16,0.08
2013-2-17,44.2,25.3,11.3,18.6,5.2,-6.5,44,42,38,0.00,0.00,11,3,11,0.08
2013-2-18,66.7,43.5,24.8,36.4,19.5,5.0,42,38,33,0.00,0.00,26,8,26,0.12
2013-2-19,46.6,31.9,24.1,22.0,10.5,4.2,42,40,37,0.00,0.00,27,9,27,0.08
2013-2-20,37.6,24.5,17.8,15.1,4.6,-0.9,43,42,39,0.00,0.00,17,4,20,0.08
2013-2-21,38.8,25.2,12.6,15.9,5.2,-5.2,44,42,39,0.00,0.00,23,4,23,0.08
2013-2-22,43.3,36.2,31.3,29.7,15.1,9.8,73,42,38,0.00,0.00,17,2,17,0.31
2013-2-23,52.5,33.8,24.4,25.1,12.0,4.7,42,40,37,0.00,0.00,11,4,11,0.00
2013-2-27,38.1,34.8,33.3,15.2,13.1,11.6,41,40,39,0.00,0.00,17,6,17,0.00
2013-2-28,38.3,35.0,32.7,15.4,13.1,11.1,41,40,39,0.00,0.00,15,6,15,0.00